Time;durP1;ratioP1;P1;durP2;ratioP2;P2;SDS_P1;SDS_P2;PMS_P1;PMS_P2;Temp;Humidity;BMP_temperature;BMP_pressure;BME280_temperature;BME280_humidity;BME280_pressure;Samples;Min_cycle;Max_cycle;Signal;HPM_P1;HPM_P2
2022/08/27 00:01:16;;;;;;;9.23;3.50;;;;;;;-141.28;100.00;50864.13;5073918;28;20204;-75
2022/08/27 00:03:44;;;;;;;19.10;3.73;;;;;;;-141.28;100.00;50834.69;5086393;28;20579;-76
2022/08/27 00:06:12;;;;;;;9.20;3.73;;;;;;;-141.28;100.00;50852.34;5073206;28;20269;-75
2022/08/27 00:08:40;;;;;;;12.17;4.30;;;;;;;-141.28;100.00;50842.53;5073462;28;20192;-76
2022/08/27 00:11:08;;;;;;;14.03;4.00;;;;;;;-141.28;100.00;50830.75;5072616;28;20203;-76
2022/08/27 00:13:35;;;;;;;9.07;4.27;;;;;;;-141.28;100.00;50828.78;5072602;28;20235;-74
2022/08/27 00:16:05;;;;;;;7.87;3.80;;;;;;;-141.28;100.00;50793.47;5072694;28;20204;-74
2022/08/27 00:18:33;;;;;;;12.00;4.30;;;;;;;-141.28;100.00;50838.63;5072095;28;20211;-75
2022/08/27 00:21:02;;;;;;;8.87;4.00;;;;;;;-141.28;100.00;50873.94;5072416;28;20261;-76
2022/08/27 00:23:30;;;;;;;12.23;3.77;;;;;;;-141.28;100.00;50824.88;5089613;28;20682;-75
2022/08/27 00:25:57;;;;;;;12.80;3.83;;;;;;;-141.28;100.00;50787.56;5071968;28;20287;-74
2022/08/27 00:28:26;;;;;;;7.73;3.70;;;;;;;-141.28;100.00;50801.31;5088130;28;20191;-76
2022/08/27 00:30:55;;;;;;;11.43;4.00;;;;;;;-141.28;100.00;50722.78;5077574;28;20203;-76
2022/08/27 00:33:24;;;;;;;11.10;3.83;;;;;;;-141.28;100.00;50724.75;5071855;28;20292;-74
2022/08/27 00:35:52;;;;;;;10.27;3.77;;;;;;;-141.28;100.00;50709.06;5085247;28;20763;-75
2022/08/27 00:38:21;;;;;;;9.47;3.70;;;;;;;-141.28;100.00;50742.41;5086640;28;20278;-74
2022/08/27 00:40:49;;;;;;;10.17;3.90;;;;;;;-141.28;100.00;50652.13;5091311;28;20654;-75
2022/08/27 00:43:22;;;;;;;9.40;3.33;;;;;;;-141.28;100.00;50656.06;5078882;28;20223;-74
2022/08/27 00:45:53;;;;;;;5.80;3.63;;;;;;;-141.28;100.00;50601.09;5091228;28;20191;-73
2022/08/27 00:48:24;;;;;;;9.40;3.80;;;;;;;-141.28;100.00;50601.09;5085159;28;20192;-76
2022/08/27 00:50:55;;;;;;;11.03;4.60;;;;;;;-141.28;100.00;50612.88;5100692;28;20255;-74
2022/08/27 00:53:28;;;;;;;8.10;3.73;;;;;;;-141.28;100.00;50608.94;5091729;28;20199;-74
2022/08/27 00:55:59;;;;;;;12.80;4.03;;;;;;;-141.28;100.00;50624.63;5077704;28;20205;-73
2022/08/27 00:58:29;;;;;;;9.90;3.90;;;;;;;-141.28;100.00;50659.97;5071887;28;20188;-76
2022/08/27 01:00:57;;;;;;;11.40;4.10;;;;;;;-141.28;100.00;50656.06;5072091;28;20207;-76
2022/08/27 01:03:27;;;;;;;11.20;4.13;;;;;;;-141.28;100.00;50638.38;5072546;28;20200;-74
2022/08/27 01:05:56;;;;;;;12.40;3.80;;;;;;;-141.28;100.00;50605.00;5073606;28;20197;-77
2022/08/27 01:08:32;;;;;;;11.23;3.87;;;;;;;-141.28;100.00;50573.59;5073009;28;20275;-76
2022/08/27 01:11:00;;;;;;;9.37;4.40;;;;;;;-141.28;100.00;50561.81;5085217;28;20199;-73
2022/08/27 01:13:31;;;;;;;10.37;4.73;;;;;;;-141.28;100.00;50532.38;5086240;28;20223;-74
2022/08/27 01:15:59;;;;;;;10.80;4.30;;;;;;;-141.28;100.00;50467.59;5081181;28;20223;-75
2022/08/27 01:18:28;;;;;;;9.50;4.73;;;;;;;-141.28;100.00;50451.91;5074483;28;20196;-73
2022/08/27 01:21:01;;;;;;;7.93;4.63;;;;;;;-141.28;100.00;50357.69;5083007;28;20658;-75
2022/08/27 01:23:38;;;;;;;11.97;4.40;;;;;;;-141.28;100.00;50349.84;5077737;28;20195;-74
2022/08/27 01:26:09;;;;;;;6.30;4.90;;;;;;;-141.28;100.00;50310.59;5090729;28;20195;-75
2022/08/27 01:28:37;;;;;;;16.37;5.17;;;;;;;-141.28;100.00;50277.22;5094344;28;20650;-74
2022/08/27 01:31:07;;;;;;;10.77;5.07;;;;;;;-141.28;100.00;50243.84;5091735;28;20195;-74
2022/08/27 01:33:35;;;;;;;13.40;5.10;;;;;;;-141.28;100.00;50212.44;5095418;28;20722;-76
2022/08/27 01:36:03;;;;;;;15.30;4.87;;;;;;;-141.28;100.00;50181.03;5110527;28;20233;-74
2022/08/27 01:38:30;;;;;;;11.43;5.30;;;;;;;-141.28;100.00;50137.88;5096389;28;20205;-76
2022/08/27 01:40:58;;;;;;;19.00;5.53;;;;;;;-141.28;100.00;50102.53;5099245;28;20718;-75
2022/08/27 01:43:27;;;;;;;15.10;5.33;;;;;;;-141.28;100.00;50024.03;5095053;28;20194;-74
2022/08/27 01:45:55;;;;;;;13.53;5.20;;;;;;;-141.28;100.00;49990.66;5081010;28;20203;-75
2022/08/27 01:48:23;;;;;;;8.33;4.73;;;;;;;-141.28;100.00;49961.22;5092214;28;20195;-76
2022/08/27 01:50:50;;;;;;;11.63;5.47;;;;;;;-141.28;100.00;49916.09;5102706;28;20198;-74
2022/08/27 01:53:20;;;;;;;19.07;5.10;;;;;;;-141.28;100.00;49898.44;5071607;28;20195;-75
2022/08/27 01:55:48;;;;;;;10.70;4.83;;;;;;;-141.28;100.00;49816.00;5087352;28;20704;-75
2022/08/27 01:58:17;;;;;;;15.07;5.63;;;;;;;-141.28;100.00;49814.03;5092034;28;20557;-75
2022/08/27 02:00:49;;;;;;;13.07;5.53;;;;;;;-141.28;100.00;49792.44;5101109;28;20204;-76
2022/08/27 02:03:17;;;;;;;9.20;5.00;;;;;;;-141.28;100.00;49721.81;5077338;28;20204;-76
2022/08/27 02:05:45;;;;;;;12.20;5.93;;;;;;;-141.28;100.00;49725.72;5084005;28;20227;-75
2022/08/27 02:08:14;;;;;;;17.67;5.67;;;;;;;-141.28;100.00;49698.25;5070808;28;20201;-76
2022/08/27 02:10:42;;;;;;;17.43;6.13;;;;;;;-141.28;100.00;49678.63;5071817;28;20678;-74
2022/08/27 02:13:12;;;;;;;15.63;6.07;;;;;;;-141.28;100.00;49682.56;5088389;28;20195;-74
2022/08/27 02:15:41;;;;;;;15.73;5.70;;;;;;;-141.28;100.00;49662.94;5092291;28;20667;-77
2022/08/27 02:18:12;;;;;;;15.77;5.70;;;;;;;-141.28;100.00;49662.94;5094583;28;20671;-75
2022/08/27 02:20:39;;;;;;;10.13;5.50;;;;;;;-141.28;100.00;49639.38;5104036;28;20195;-75
2022/08/27 02:23:07;;;;;;;15.43;5.60;;;;;;;-141.28;100.00;49647.22;5081986;28;20208;-75
2022/08/27 02:25:35;;;;;;;9.93;4.80;;;;;;;-141.28;100.00;49655.09;5074802;28;20202;-75
2022/08/27 02:28:04;;;;;;;9.77;5.03;;;;;;;-141.28;100.00;49639.38;5094233;28;20208;-76
2022/08/27 02:30:33;;;;;;;9.33;4.97;;;;;;;-141.28;100.00;49651.16;5097779;28;20223;-75
2022/08/27 02:33:01;;;;;;;14.50;5.30;;;;;;;-141.28;100.00;49682.56;5093966;28;20195;-75
2022/08/27 02:35:32;;;;;;;19.10;5.30;;;;;;;-141.28;100.00;49700.22;5080969;28;20246;-75
2022/08/27 02:38:00;;;;;;;16.60;5.13;;;;;;;-141.28;100.00;49655.09;5080426;28;20215;-75
2022/08/27 02:40:29;;;;;;;14.07;4.90;;;;;;;-141.28;100.00;49678.63;5086523;28;20643;-74
2022/08/27 02:42:56;;;;;;;8.30;4.00;;;;;;;-141.28;100.00;49686.47;5074009;28;20196;-75
2022/08/27 02:45:25;;;;;;;15.47;4.27;;;;;;;-141.28;100.00;49761.06;5074017;28;20279;-76
2022/08/27 02:47:53;;;;;;;12.33;4.40;;;;;;;-141.28;100.00;49816.00;5073478;28;20279;-75
2022/08/27 02:50:21;;;;;;;10.37;3.93;;;;;;;-141.28;100.00;49870.94;5064783;28;20218;-75
2022/08/27 02:52:50;;;;;;;18.33;4.83;;;;;;;-141.28;100.00;49933.75;5095346;28;20257;-75
2022/08/27 02:55:17;;;;;;;7.80;4.07;;;;;;;-141.28;100.00;49947.50;5113852;28;20770;-74
2022/08/27 02:57:47;;;;;;;7.73;4.23;;;;;;;-141.28;100.00;49933.75;5080352;28;20188;-75
2022/08/27 03:00:17;;;;;;;12.90;4.43;;;;;;;-141.28;100.00;49959.25;5084157;28;20286;-76
2022/08/27 03:02:44;;;;;;;8.80;4.00;;;;;;;-141.28;100.00;49976.94;5093911;28;20249;-76
2022/08/27 03:05:13;;;;;;;7.20;4.00;;;;;;;-141.28;100.00;50031.88;5098063;28;20287;-73
2022/08/27 03:07:42;;;;;;;13.20;4.00;;;;;;;-141.28;100.00;50090.75;5093678;28;20192;-75
2022/08/27 03:10:13;;;;;;;11.77;4.17;;;;;;;-141.28;100.00;50090.75;5073601;28;20659;-75
2022/08/27 03:12:40;;;;;;;11.97;4.40;;;;;;;-141.28;100.00;50057.41;5073401;28;20203;-75
2022/08/27 03:15:11;;;;;;;9.70;4.17;;;;;;;-141.28;100.00;50027.97;5095915;28;20310;-76
2022/08/27 03:20:24;;;;;;;11.90;3.73;;;;;;;-141.28;100.00;50122.16;5093194;28;20679;-75
2022/08/27 03:22:51;;;;;;;12.20;5.00;;;;;;;-141.28;100.00;50071.13;5085129;28;20200;-76
2022/08/27 03:25:21;;;;;;;14.73;4.97;;;;;;;-141.28;100.00;50063.28;5087170;28;20196;-76
2022/08/27 03:27:48;;;;;;;9.37;4.80;;;;;;;-141.28;100.00;49988.69;5101224;28;20252;-75
2022/08/27 03:30:20;;;;;;;13.90;4.57;;;;;;;-141.28;100.00;50020.09;5108932;28;20198;-75
2022/08/27 03:32:47;;;;;;;11.13;4.73;;;;;;;-141.28;100.00;49980.84;5089140;28;20725;-75
2022/08/27 03:35:16;;;;;;;16.80;5.07;;;;;;;-141.28;100.00;49974.97;5083634;28;20318;-75
2022/08/27 03:37:44;;;;;;;14.40;5.70;;;;;;;-141.28;100.00;49949.44;5092209;28;20234;-75
2022/08/27 03:40:13;;;;;;;13.90;6.13;;;;;;;-141.28;100.00;49898.44;5092680;28;20272;-76
2022/08/27 03:42:43;;;;;;;14.10;5.97;;;;;;;-141.28;100.00;49908.25;5110780;28;20199;-75
2022/08/27 03:45:11;;;;;;;8.80;5.60;;;;;;;-141.28;100.00;49880.75;5113453;28;20199;-76
2022/08/27 03:47:38;;;;;;;15.37;6.27;;;;;;;-141.28;100.00;49851.31;5063372;28;20207;-76
2022/08/27 03:50:07;;;;;;;11.33;6.83;;;;;;;-141.28;100.00;49812.06;5077721;28;20283;-75
2022/08/27 03:52:35;;;;;;;18.20;7.07;;;;;;;-141.28;100.00;49763.00;5072840;28;20200;-76
2022/08/27 03:55:03;;;;;;;20.63;7.07;;;;;;;-141.28;100.00;49702.19;5072653;28;20224;-76
2022/08/27 03:57:30;;;;;;;21.47;7.27;;;;;;;-141.28;100.00;49686.47;5072456;28;20199;-76
2022/08/27 04:00:00;;;;;;;15.53;6.97;;;;;;;-141.28;100.00;49655.09;5074760;28;20196;-75
2022/08/27 04:02:27;;;;;;;23.60;7.00;;;;;;;-141.28;100.00;49645.28;5089048;28;20681;-75
2022/08/27 04:04:56;;;;;;;17.00;6.97;;;;;;;-141.28;100.00;49623.69;5088955;28;20575;-75
2022/08/27 04:07:23;;;;;;;16.50;7.23;;;;;;;-141.28;100.00;49609.94;5080919;28;20203;-75
2022/08/27 04:09:51;;;;;;;20.10;6.17;;;;;;;-141.28;100.00;49617.78;5112745;28;20290;-75
2022/08/27 04:12:19;;;;;;;21.37;7.00;;;;;;;-141.28;100.00;49584.44;5082641;28;20200;-76
2022/08/27 04:14:46;;;;;;;17.60;7.07;;;;;;;-141.28;100.00;49568.75;5092266;28;20227;-75
2022/08/27 04:17:15;;;;;;;20.07;6.83;;;;;;;-141.28;100.00;49586.41;5102984;28;20199;-75
2022/08/27 04:19:42;;;;;;;17.37;6.70;;;;;;;-141.28;100.00;49592.28;5091527;28;20559;-75
2022/08/27 04:22:09;;;;;;;17.50;5.00;;;;;;;-141.28;100.00;49617.78;5111806;28;20191;-76
2022/08/27 04:24:37;;;;;;;8.47;4.40;;;;;;;-141.28;100.00;49710.03;5112244;28;20202;-74
2022/08/27 04:27:05;;;;;;;17.17;5.80;;;;;;;-141.28;100.00;49774.78;5097704;28;20223;-75
2022/08/27 04:29:33;;;;;;;6.53;4.33;;;;;;;-141.28;100.00;49837.59;5111654;28;20201;-74
2022/08/27 04:32:01;;;;;;;21.23;8.27;;;;;;;-141.28;100.00;49804.22;5095809;28;20646;-75
2022/08/27 04:34:31;;;;;;;17.57;7.43;;;;;;;-141.28;100.00;49796.38;5110691;28;20296;-76
2022/08/27 04:36:58;;;;;;;23.57;9.97;;;;;;;-141.28;100.00;49802.25;5107746;28;20255;-75
2022/08/27 04:39:27;;;;;;;33.93;16.83;;;;;;;-141.28;100.00;49780.69;5097893;28;20572;-75
2022/08/27 04:41:55;;;;;;;24.77;14.07;;;;;;;-141.28;100.00;49816.00;5096239;28;20194;-75
2022/08/27 04:44:24;;;;;;;18.70;10.57;;;;;;;-141.28;100.00;49764.97;5109405;28;20206;-74
2022/08/27 04:46:55;;;;;;;15.67;8.80;;;;;;;-141.28;100.00;49778.72;5090918;28;20619;-75
2022/08/27 04:49:23;;;;;;;14.63;7.63;;;;;;;-141.28;100.00;49794.41;5103607;28;20209;-76
2022/08/27 04:51:53;;;;;;;14.23;6.53;;;;;;;-141.28;100.00;49845.44;5099027;28;20210;-76
2022/08/27 04:54:21;;;;;;;13.63;6.40;;;;;;;-141.28;100.00;49843.47;5096711;28;20249;-77
2022/08/27 04:56:49;;;;;;;14.93;7.37;;;;;;;-141.28;100.00;49859.19;5078333;28;20223;-77
2022/08/27 04:59:17;;;;;;;19.20;8.33;;;;;;;-141.28;100.00;49843.47;5077683;28;20218;-76
2022/08/27 05:01:44;;;;;;;14.23;6.60;;;;;;;-141.28;100.00;49861.13;5091802;28;20662;-76
2022/08/27 05:04:13;;;;;;;15.50;6.73;;;;;;;-141.28;100.00;49874.88;5102709;28;20194;-76
2022/08/27 05:06:44;;;;;;;12.67;6.73;;;;;;;-141.28;100.00;49898.44;5071386;28;20659;-75
2022/08/27 05:09:14;;;;;;;22.90;8.03;;;;;;;-141.28;100.00;49904.31;5060246;28;20278;-75
2022/08/27 05:11:42;;;;;;;13.23;6.53;;;;;;;-141.28;100.00;49886.66;5103888;28;20564;-75
2022/08/27 05:14:12;;;;;;;13.40;6.73;;;;;;;-141.28;100.00;49920.00;5071525;28;20224;-76
2022/08/27 05:19:20;;;;;;;13.53;7.03;;;;;;;-141.28;100.00;50071.13;5090846;28;20538;-74
2022/08/27 05:21:51;;;;;;;16.23;6.23;;;;;;;-141.28;100.00;50137.88;5091286;28;20203;-75
2022/08/27 05:24:21;;;;;;;17.93;7.50;;;;;;;-141.28;100.00;50194.78;5103882;28;20662;-75
2022/08/27 05:26:50;;;;;;;14.63;6.83;;;;;;;-141.28;100.00;50247.78;5091036;28;20191;-75
2022/08/27 05:29:17;;;;;;;16.97;6.80;;;;;;;-141.28;100.00;50279.19;5077939;28;20512;-77
2022/08/27 05:31:46;;;;;;;11.20;6.13;;;;;;;-141.28;100.00;50338.06;5102422;28;20293;-75
2022/08/27 05:34:15;;;;;;;21.63;6.47;;;;;;;-141.28;100.00;50365.53;5083998;28;20192;-75
2022/08/27 05:36:43;;;;;;;10.33;5.93;;;;;;;-141.28;100.00;50434.25;5084849;28;20227;-74
2022/08/27 05:39:14;;;;;;;18.53;6.17;;;;;;;-141.28;100.00;50516.69;5090627;28;20199;-75
2022/08/27 05:41:51;;;;;;;12.93;6.17;;;;;;;-141.28;100.00;50612.88;5105952;28;20195;-76
2022/08/27 05:44:18;;;;;;;18.80;6.03;;;;;;;-141.28;100.00;50632.50;5101142;28;20196;-77
2022/08/27 05:46:46;;;;;;;24.17;7.80;;;;;;;-141.28;100.00;50764.00;5101713;28;20192;-74
2022/08/27 05:49:15;;;;;;;17.77;7.40;;;;;;;-141.28;100.00;50799.34;5075214;28;20588;-77
2022/08/27 05:51:42;;;;;;;12.57;6.87;;;;;;;-141.28;100.00;50895.53;5075437;28;20192;-77
2022/08/27 05:54:17;;;;;;;33.37;9.03;;;;;;;-141.28;100.00;50985.84;5086606;28;20231;-76
2022/08/27 05:56:45;;;;;;;14.67;8.60;;;;;;;-141.28;100.00;51072.22;5106354;28;20222;-76
2022/08/27 06:01:59;;;;;;;15.53;7.67;;;;;;;-141.28;100.00;51099.72;5075039;28;20207;-75
2022/08/27 06:04:30;;;;;;;15.77;7.90;;;;;;;-141.28;100.00;51115.41;5082558;28;20253;-76
2022/08/27 06:06:58;;;;;;;16.40;6.80;;;;;;;-141.28;100.00;51225.34;5094323;28;20199;-75
2022/08/27 06:09:28;;;;;;;11.80;5.80;;;;;;;-141.28;100.00;51574.84;5094685;28;20199;-74
2022/08/27 06:11:56;;;;;;;16.27;6.50;;;;;;;-141.28;100.00;51614.13;5096604;28;20204;-75
2022/08/27 06:14:28;;;;;;;14.40;6.60;;;;;;;-141.28;100.00;51735.84;5114614;28;20223;-76
2022/08/27 06:16:55;;;;;;;14.53;6.03;;;;;;;-141.28;100.00;51820.28;5096321;28;20701;-76
2022/08/27 06:19:25;;;;;;;15.83;6.23;;;;;;;-141.28;100.00;51743.72;5105047;28;20198;-75
2022/08/27 06:21:52;;;;;;;19.40;7.10;;;;;;;-141.28;100.00;51614.13;5099935;28;20191;-75
2022/08/27 06:24:21;;;;;;;21.03;7.10;;;;;;;-141.28;100.00;51657.31;5102754;28;20560;-76
2022/08/27 06:26:49;;;;;;;16.20;6.50;;;;;;;-141.28;100.00;51663.19;5102511;28;20220;-75
2022/08/27 06:29:18;;;;;;;19.17;6.10;;;;;;;-141.28;100.00;51676.94;5074425;28;20246;-78
2022/08/27 06:31:49;;;;;;;17.63;5.73;;;;;;;-141.28;100.00;51627.84;5088720;28;20245;-74
2022/08/27 06:34:18;;;;;;;16.20;5.77;;;;;;;-141.28;100.00;51716.22;5074922;28;20196;-75
2022/08/27 06:36:47;;;;;;;16.77;5.50;;;;;;;-141.28;100.00;51570.91;5075851;28;20694;-74
2022/08/27 06:39:14;;;;;;;16.57;5.40;;;;;;;-141.28;100.00;51394.22;5086623;28;20222;-75
2022/08/27 06:41:43;;;;;;;21.50;5.53;;;;;;;-141.28;100.00;51278.38;5092322;28;20203;-74
2022/08/27 06:44:10;;;;;;;17.63;5.23;;;;;;;-141.28;100.00;51235.19;5092345;28;20273;-75
2022/08/27 06:46:39;;;;;;;17.73;5.90;;;;;;;-141.28;100.00;51229.28;5092391;28;20207;-74
2022/08/27 06:49:08;;;;;;;16.50;5.77;;;;;;;-141.28;100.00;51127.19;5079971;28;20201;-74
2022/08/27 06:51:38;;;;;;;21.57;5.33;;;;;;;-141.28;100.00;51131.13;5079910;28;20214;-75
2022/08/27 06:54:09;;;;;;;19.93;5.70;;;;;;;-141.28;100.00;51021.19;5075083;28;20273;-75
2022/08/27 06:56:36;;;;;;;14.40;5.13;;;;;;;-141.28;100.00;51070.25;5082358;28;20310;-74
2022/08/27 06:59:09;;;;;;;19.83;5.57;;;;;;;-141.28;100.00;50997.63;5093129;28;20216;-74
2022/08/27 07:01:39;;;;;;;17.57;5.33;;;;;;;-141.28;100.00;50989.78;5111455;28;20230;-75
2022/08/27 07:04:10;;;;;;;15.30;5.60;;;;;;;-141.28;100.00;50915.16;5101430;28;20280;-74
2022/08/27 07:06:38;;;;;;;12.60;5.50;;;;;;;-141.28;100.00;50844.50;5085378;28;20254;-76
2022/08/27 07:09:08;;;;;;;15.93;5.63;;;;;;;-141.28;100.00;50773.81;5073673;28;20736;-76
2022/08/27 07:11:35;;;;;;;21.13;6.07;;;;;;;-141.28;100.00;50746.34;5073701;28;20665;-76
2022/08/27 07:14:04;;;;;;;15.20;5.50;;;;;;;-141.28;100.00;50730.66;5073789;28;20221;-75
2022/08/27 07:16:32;;;;;;;15.53;5.17;;;;;;;-141.28;100.00;50589.31;5074163;28;20704;-76
2022/08/27 07:19:01;;;;;;;19.40;5.57;;;;;;;-141.28;100.00;50451.91;5087771;28;20191;-74
2022/08/27 07:21:31;;;;;;;12.10;5.40;;;;;;;-141.28;100.00;50206.56;5056420;28;20766;-76
2022/08/27 07:24:03;;;;;;;13.20;5.70;;;;;;;-141.28;100.00;50234.03;5074950;28;20221;-75
2022/08/27 07:26:32;;;;;;;17.10;6.07;;;;;;;-141.28;100.00;50216.38;5074236;28;20217;-75
2022/08/27 07:28:59;;;;;;;14.73;5.13;;;;;;;-141.28;100.00;50098.63;5075013;28;20228;-75
2022/08/27 07:31:27;;;;;;;16.37;5.37;;;;;;;-141.28;100.00;50051.50;5084292;28;20201;-75
2022/08/27 07:33:54;;;;;;;15.20;5.17;;;;;;;-141.28;100.00;50020.09;5099859;28;20373;-75
2022/08/27 07:36:22;;;;;;;14.90;5.70;;;;;;;-141.28;100.00;50082.91;5103954;28;20235;-76
2022/08/27 07:38:51;;;;;;;19.33;6.40;;;;;;;-141.28;100.00;50169.28;5089945;28;20205;-75
2022/08/27 07:41:19;;;;;;;19.00;6.17;;;;;;;-141.28;100.00;50326.28;5072785;28;20228;-76
2022/08/27 07:46:32;;;;;;;13.00;7.20;;;;;;;-141.28;100.00;50267.41;5086358;28;20202;-76
2022/08/27 07:48:59;;;;;;;28.33;7.33;;;;;;;-141.28;100.00;50345.91;5093153;28;20202;-76
2022/08/27 07:51:30;;;;;;;18.97;7.07;;;;;;;-141.28;100.00;50318.44;5098884;28;20516;-76
2022/08/27 07:53:59;;;;;;;21.77;6.97;;;;;;;-141.28;100.00;50393.03;5111641;28;20697;-75
2022/08/27 07:56:27;;;;;;;19.93;6.83;;;;;;;-141.28;100.00;50273.28;5113300;28;20229;-74
2022/08/27 07:58:55;;;;;;;15.57;7.37;;;;;;;-141.28;100.00;50255.63;5083111;28;20236;-75
2022/08/27 08:01:24;;;;;;;14.30;6.37;;;;;;;-141.28;100.00;50184.97;5087232;28;20253;-75
2022/08/27 08:03:51;;;;;;;24.83;6.87;;;;;;;-141.28;100.00;50078.97;5082128;28;20195;-74
2022/08/27 08:06:18;;;;;;;16.43;6.50;;;;;;;-141.28;100.00;49902.34;5095534;28;20255;-74
2022/08/27 08:08:45;;;;;;;16.17;6.23;;;;;;;-141.28;100.00;49741.44;5089849;28;20204;-74
2022/08/27 08:11:17;;;;;;;14.80;6.37;;;;;;;-141.28;100.00;49431.38;5084563;28;20211;-75
2022/08/27 08:13:46;;;;;;;24.13;5.90;;;;;;;-141.28;100.00;49403.91;5073205;28;20235;-76
2022/08/27 08:16:15;;;;;;;16.37;5.60;;;;;;;-141.28;100.00;49084.06;5085348;28;20568;-76
2022/08/27 08:18:42;;;;;;;19.47;6.33;;;;;;;-141.28;100.00;49027.19;5078851;28;20200;-76
2022/08/27 08:21:12;;;;;;;11.87;5.80;;;;;;;-141.28;100.00;49078.19;5089649;28;20213;-75
2022/08/27 08:23:40;;;;;;;20.03;5.93;;;;;;;-141.28;100.00;49011.47;5102809;28;20267;-75
2022/08/27 08:26:08;;;;;;;10.80;5.37;;;;;;;-141.28;100.00;48925.16;5094122;28;20196;-76
2022/08/27 08:28:39;;;;;;;19.73;7.07;;;;;;;-141.28;100.00;48854.53;5092347;28;20203;-75
2022/08/27 08:31:07;;;;;;;12.63;5.30;;;;;;;-141.28;100.00;48866.28;5091858;28;20219;-75
2022/08/27 08:33:35;;;;;;;14.87;5.57;;;;;;;-141.28;100.00;48807.44;5091640;28;20254;-74
2022/08/27 08:36:08;;;;;;;13.73;4.83;;;;;;;-141.28;100.00;48807.44;5111381;28;20725;-75
2022/08/27 08:38:36;;;;;;;20.73;6.13;;;;;;;-141.28;100.00;48772.13;5107799;28;20282;-76
2022/08/27 08:41:04;;;;;;;15.00;4.83;;;;;;;-141.28;100.00;48830.97;5101075;28;20208;-74
2022/08/27 08:43:38;;;;;;;10.50;5.47;;;;;;;-141.28;100.00;48787.81;5096426;28;20205;-74
2022/08/27 08:46:12;;;;;;;15.67;5.67;;;;;;;-141.28;100.00;48768.19;5100029;28;20211;-75
2022/08/27 08:48:46;;;;;;;18.63;4.80;;;;;;;-141.28;100.00;48748.56;5109337;28;20204;-74
2022/08/27 08:51:19;;;;;;;14.87;5.50;;;;;;;-141.28;100.00;48772.13;5098905;28;20197;-75
2022/08/27 08:53:53;;;;;;;11.93;4.77;;;;;;;-141.28;100.00;48760.34;5080098;28;20283;-75
2022/08/27 08:56:25;;;;;;;13.83;5.03;;;;;;;-141.28;100.00;48748.56;5071572;28;20666;-74
2022/08/27 08:58:59;;;;;;;13.63;4.97;;;;;;;-141.28;100.00;48748.56;5093038;28;20196;-75
2022/08/27 09:01:27;;;;;;;19.47;5.40;;;;;;;-141.28;100.00;48740.72;5100343;28;20204;-76
2022/08/27 09:03:58;;;;;;;8.00;4.57;;;;;;;-141.28;100.00;48776.03;5090978;28;20217;-75
2022/08/27 09:06:33;;;;;;;14.57;4.67;;;;;;;-141.28;100.00;48760.34;5084259;28;20290;-75
2022/08/27 09:09:09;;;;;;;15.80;5.10;;;;;;;-141.28;100.00;48748.56;5071468;28;20209;-75
2022/08/27 09:11:41;;;;;;;14.20;4.80;;;;;;;-141.28;100.00;48736.81;5071388;28;20203;-75
2022/08/27 09:14:23;;;;;;;16.27;4.40;;;;;;;-141.28;100.00;48748.56;5093813;28;20288;-76
2022/08/27 09:16:50;;;;;;;14.83;5.03;;;;;;;-141.28;100.00;48740.72;5097110;28;20232;-75
2022/08/27 09:19:20;;;;;;;15.23;4.87;;;;;;;-141.28;100.00;48752.50;5077779;28;20194;-76
2022/08/27 09:21:54;;;;;;;11.73;4.43;;;;;;;-141.28;100.00;48713.25;5102964;28;20278;-76
2022/08/27 09:24:27;;;;;;;11.13;4.30;;;;;;;-141.28;100.00;48730.91;5090979;28;20560;-75
2022/08/27 09:26:54;;;;;;;8.33;4.00;;;;;;;-141.28;100.00;48717.19;5106635;28;20608;-76
2022/08/27 09:29:26;;;;;;;13.17;4.37;;;;;;;-141.28;100.00;48701.50;5101448;28;20207;-76
2022/08/27 09:31:56;;;;;;;14.67;4.20;;;;;;;-141.28;98.29;48717.19;5106245;28;20226;-76
2022/08/27 09:34:26;;;;;;;13.73;3.87;;;;;;;-141.28;100.00;48709.34;5110535;28;20206;-75
2022/08/27 09:36:59;;;;;;;12.63;4.03;;;;;;;-141.28;97.81;48705.41;5091472;28;20315;-75
2022/08/27 09:39:33;;;;;;;11.50;4.43;;;;;;;-141.28;98.60;48685.81;5091051;28;20215;-75
2022/08/27 09:42:00;;;;;;;12.47;4.20;;;;;;;-141.28;94.52;48685.81;5077484;28;20577;-76
2022/08/27 09:44:29;;;;;;;13.80;4.33;;;;;;;-141.28;88.47;48654.41;5090362;28;20216;-77
2022/08/27 09:46:59;;;;;;;11.57;4.03;;;;;;;-141.28;87.41;48619.09;5090789;28;20197;-75
2022/08/27 09:49:26;;;;;;;16.87;4.70;;;;;;;-141.28;73.85;48634.78;5090272;28;20308;-76
2022/08/27 09:51:55;;;;;;;12.23;4.13;;;;;;;-141.28;70.71;48638.72;5098593;28;20259;-75
2022/08/27 09:54:38;;;;;;;17.27;4.30;;;;;;;-141.28;69.16;48579.88;5094452;28;20225;-75
2022/08/27 09:57:07;;;;;;;9.07;3.63;;;;;;;-141.28;64.47;48648.53;5090425;28;20714;-76
2022/08/27 09:59:39;;;;;;;14.57;4.57;;;;;;;-141.28;65.27;48670.09;5094826;28;20216;-74
2022/08/27 10:02:14;;;;;;;16.23;4.10;;;;;;;-141.28;64.92;48634.78;5110667;28;20205;-76
2022/08/27 10:04:43;;;;;;;21.17;4.10;;;;;;;-141.28;65.36;48646.56;5078943;28;20268;-75
2022/08/27 10:07:23;;;;;;;15.97;3.97;;;;;;;-141.28;64.65;48679.91;5078838;28;20689;-75
2022/08/27 10:09:57;;;;;;;12.03;3.53;;;;;;;-141.28;61.76;48654.41;5070881;28;20204;-75
2022/08/27 10:12:31;;;;;;;13.37;3.80;;;;;;;-141.28;64.80;48632.84;5083168;28;20201;-75
2022/08/27 10:15:02;;;;;;;15.20;4.17;;;;;;;-141.28;64.89;48666.19;5101422;28;20321;-75
2022/08/27 10:17:37;;;;;;;17.30;4.23;;;;;;;-141.28;66.44;48642.63;5100645;28;20250;-76
2022/08/27 10:20:17;;;;;;;18.07;4.13;;;;;;;-141.28;59.45;48626.94;5094647;28;20635;-77
2022/08/27 10:22:58;;;;;;;20.13;3.60;;;;;;;-141.28;55.62;48615.19;5097806;28;20672;-74
2022/08/27 10:25:34;;;;;;;10.17;3.30;;;;;;;-141.28;53.18;48589.66;5090354;28;20191;-75
2022/08/27 10:28:11;;;;;;;13.33;4.00;;;;;;;-141.28;52.71;48572.00;5091317;28;20289;-76
2022/08/27 10:30:56;;;;;;;8.37;3.40;;;;;;;-141.28;52.98;48615.19;5085956;28;20206;-76
2022/08/27 10:33:35;;;;;;;11.33;3.53;;;;;;;-141.28;51.18;48607.31;5071677;28;20731;-77
2022/08/27 10:36:09;;;;;;;17.37;4.37;;;;;;;-141.28;50.65;48599.47;5101268;28;20195;-74
2022/08/27 10:38:40;;;;;;;18.00;4.80;;;;;;;-141.28;50.47;48579.88;5102496;28;20226;-76
2022/08/27 10:41:16;;;;;;;11.03;3.60;;;;;;;-141.28;53.10;48607.31;5110319;28;20306;-75
2022/08/27 10:44:04;;;;;;;13.63;4.10;;;;;;;-141.28;52.44;48599.47;5103992;28;20197;-76
2022/08/27 10:46:55;;;;;;;21.20;3.83;;;;;;;-141.28;51.27;48587.72;5087801;28;20645;-75
2022/08/27 10:49:30;;;;;;;18.97;4.30;;;;;;;-141.28;51.49;48560.25;5100702;28;20257;-78
2022/08/27 10:52:04;;;;;;;13.33;4.57;;;;;;;-141.28;50.36;48572.00;5095081;28;20211;-78
2022/08/27 10:54:38;;;;;;;13.63;3.97;;;;;;;-141.28;47.93;48556.31;5080825;28;20192;-75
2022/08/27 10:57:12;;;;;;;15.37;3.80;;;;;;;-141.28;46.92;48550.44;5082217;28;20227;-75
2022/08/27 10:59:48;;;;;;;11.40;4.57;;;;;;;-141.28;44.33;48570.06;5079970;28;20209;-76
2022/08/27 11:02:28;;;;;;;11.23;4.70;;;;;;;-141.28;46.38;48548.47;5079712;28;20204;-77
2022/08/27 11:05:00;;;;;;;17.27;5.30;;;;;;;-141.28;45.91;48548.47;5082460;28;20297;-77
2022/08/27 11:07:31;;;;;;;19.77;5.20;;;;;;;-141.28;45.74;48519.06;5090774;28;20204;-77
2022/08/27 11:10:01;;;;;;;11.57;3.90;;;;;;;-141.28;42.10;48532.78;5093892;28;20206;-77
2022/08/27 11:12:33;;;;;;;11.73;4.67;;;;;;;-141.28;42.76;48521.00;5096755;28;20204;-75
2022/08/27 11:15:03;;;;;;;12.53;4.83;;;;;;;-141.28;42.65;48497.47;5113330;28;20228;-75
2022/08/27 11:17:36;;;;;;;11.30;4.83;;;;;;;-141.28;41.91;48513.16;5112289;28;20237;-76
2022/08/27 11:20:08;;;;;;;14.57;4.77;;;;;;;-141.28;41.84;48487.66;5103929;28;20199;-75
2022/08/27 11:22:40;;;;;;;12.27;4.00;;;;;;;-141.28;40.93;48521.00;5090115;28;20204;-76
2022/08/27 11:25:19;;;;;;;15.57;4.97;;;;;;;-141.28;43.03;48540.63;5095919;28;20703;-77
2022/08/27 11:27:47;;;;;;;10.87;4.07;;;;;;;-141.28;42.93;48552.41;5086226;28;20206;-79